sensor_id;sensor_type;location;lat;lon;timestamp;pressure;altitude;pressure_sealevel;temperature;humidity
71948;BME280;63257;55.082;38.772;2023-10-31T00:02:01;99120.00;;;11.19;87.04
71948;BME280;63257;55.082;38.772;2023-10-31T00:04:27;99137.97;;;11.27;86.45
71948;BME280;63257;55.082;38.772;2023-10-31T00:06:52;99139.56;;;11.29;86.33
71948;BME280;63257;55.082;38.772;2023-10-31T00:09:18;99131.09;;;11.24;86.15
71948;BME280;63257;55.082;38.772;2023-10-31T00:11:44;99133.75;;;11.24;86.43
71948;BME280;63257;55.082;38.772;2023-10-31T00:14:10;99117.78;;;11.13;86.73
71948;BME280;63257;55.082;38.772;2023-10-31T00:16:35;99139.09;;;11.10;87.01
71948;BME280;63257;55.082;38.772;2023-10-31T00:19:01;99152.03;;;11.14;87.02
71948;BME280;63257;55.082;38.772;2023-10-31T00:21:27;99150.72;;;11.07;87.41
71948;BME280;63257;55.082;38.772;2023-10-31T00:23:53;99136.47;;;10.97;87.44
71948;BME280;63257;55.082;38.772;2023-10-31T00:26:19;99134.88;;;10.94;87.59
71948;BME280;63257;55.082;38.772;2023-10-31T00:28:51;99150.63;;;10.96;88.02
71948;BME280;63257;55.082;38.772;2023-10-31T00:31:17;99147.13;;;10.95;88.44
71948;BME280;63257;55.082;38.772;2023-10-31T00:33:43;99149.13;;;10.92;88.39
71948;BME280;63257;55.082;38.772;2023-10-31T00:36:09;99140.34;;;10.78;88.84
71948;BME280;63257;55.082;38.772;2023-10-31T00:38:35;99139.38;;;10.66;89.25
71948;BME280;63257;55.082;38.772;2023-10-31T00:41:00;99151.31;;;10.72;89.45
71948;BME280;63257;55.082;38.772;2023-10-31T00:43:26;99166.38;;;10.70;89.34
71948;BME280;63257;55.082;38.772;2023-10-31T00:45:52;99154.28;;;10.67;89.56
71948;BME280;63257;55.082;38.772;2023-10-31T00:48:20;99168.50;;;10.65;89.54
71948;BME280;63257;55.082;38.772;2023-10-31T00:50:46;99176.72;;;10.60;90.05
71948;BME280;63257;55.082;38.772;2023-10-31T00:53:11;99154.63;;;10.48;89.23
71948;BME280;63257;55.082;38.772;2023-10-31T00:55:40;99170.72;;;10.58;89.35
71948;BME280;63257;55.082;38.772;2023-10-31T00:58:07;99175.84;;;10.47;89.19
71948;BME280;63257;55.082;38.772;2023-10-31T01:00:33;99189.66;;;10.50;89.55
71948;BME280;63257;55.082;38.772;2023-10-31T01:03:00;99176.34;;;10.39;90.07
71948;BME280;63257;55.082;38.772;2023-10-31T01:05:26;99197.44;;;10.39;91.25
71948;BME280;63257;55.082;38.772;2023-10-31T01:07:55;99183.19;;;10.27;92.04
71948;BME280;63257;55.082;38.772;2023-10-31T01:10:21;99199.78;;;10.29;92.93
71948;BME280;63257;55.082;38.772;2023-10-31T01:12:48;99171.94;;;10.11;94.27
71948;BME280;63257;55.082;38.772;2023-10-31T01:15:14;99174.78;;;10.08;95.47
71948;BME280;63257;55.082;38.772;2023-10-31T01:17:40;99177.06;;;9.99;96.25
71948;BME280;63257;55.082;38.772;2023-10-31T01:20:07;99189.09;;;10.04;97.00
71948;BME280;63257;55.082;38.772;2023-10-31T01:22:33;99198.25;;;9.98;97.73
71948;BME280;63257;55.082;38.772;2023-10-31T01:25:00;99198.81;;;9.89;98.50
71948;BME280;63257;55.082;38.772;2023-10-31T01:27:26;99208.72;;;9.85;99.21
71948;BME280;63257;55.082;38.772;2023-10-31T01:29:51;99202.69;;;9.83;99.81
71948;BME280;63257;55.082;38.772;2023-10-31T01:32:17;99203.16;;;9.75;100.00
71948;BME280;63257;55.082;38.772;2023-10-31T01:34:44;99188.09;;;9.63;100.00
71948;BME280;63257;55.082;38.772;2023-10-31T01:37:09;99207.00;;;9.70;100.00
71948;BME280;63257;55.082;38.772;2023-10-31T01:39:36;99186.88;;;9.54;100.00
71948;BME280;63257;55.082;38.772;2023-10-31T01:42:02;99186.03;;;9.54;100.00
71948;BME280;63257;55.082;38.772;2023-10-31T01:44:28;99207.22;;;9.52;100.00
71948;BME280;63257;55.082;38.772;2023-10-31T01:46:55;99207.38;;;9.49;100.00
71948;BME280;63257;55.082;38.772;2023-10-31T01:49:21;99218.59;;;9.53;100.00
71948;BME280;63257;55.082;38.772;2023-10-31T01:51:47;99230.06;;;9.51;100.00
71948;BME280;63257;55.082;38.772;2023-10-31T01:54:14;99211.72;;;9.36;100.00
71948;BME280;63257;55.082;38.772;2023-10-31T01:56:41;99231.47;;;9.43;100.00
71948;BME280;63257;55.082;38.772;2023-10-31T01:59:08;99212.66;;;9.34;100.00
71948;BME280;63257;55.082;38.772;2023-10-31T02:01:40;99235.03;;;9.42;100.00
71948;BME280;63257;55.082;38.772;2023-10-31T02:04:07;99233.63;;;9.36;100.00
71948;BME280;63257;55.082;38.772;2023-10-31T02:06:33;99251.13;;;9.37;100.00
71948;BME280;63257;55.082;38.772;2023-10-31T02:08:59;99250.63;;;9.30;100.00
71948;BME280;63257;55.082;38.772;2023-10-31T02:11:24;99274.53;;;9.27;100.00
71948;BME280;63257;55.082;38.772;2023-10-31T02:13:50;99255.84;;;9.16;100.00
71948;BME280;63257;55.082;38.772;2023-10-31T02:16:16;99261.13;;;9.16;100.00
71948;BME280;63257;55.082;38.772;2023-10-31T02:18:42;99265.81;;;9.11;100.00
71948;BME280;63257;55.082;38.772;2023-10-31T02:21:08;99254.97;;;9.01;100.00
71948;BME280;63257;55.082;38.772;2023-10-31T02:23:34;99275.09;;;9.02;100.00
71948;BME280;63257;55.082;38.772;2023-10-31T02:26:02;99287.50;;;9.00;100.00
71948;BME280;63257;55.082;38.772;2023-10-31T02:28:29;99287.00;;;8.93;100.00
71948;BME280;63257;55.082;38.772;2023-10-31T02:30:57;99286.41;;;8.88;100.00
71948;BME280;63257;55.082;38.772;2023-10-31T02:33:23;99280.72;;;8.80;100.00
71948;BME280;63257;55.082;38.772;2023-10-31T02:35:50;99276.41;;;8.79;100.00
71948;BME280;63257;55.082;38.772;2023-10-31T02:38:16;99282.84;;;8.73;100.00
71948;BME280;63257;55.082;38.772;2023-10-31T02:40:42;99302.56;;;8.82;100.00
71948;BME280;63257;55.082;38.772;2023-10-31T02:43:08;99290.75;;;8.73;100.00
71948;BME280;63257;55.082;38.772;2023-10-31T02:45:34;99304.22;;;8.83;100.00
71948;BME280;63257;55.082;38.772;2023-10-31T02:48:00;99301.59;;;8.83;100.00
71948;BME280;63257;55.082;38.772;2023-10-31T02:50:27;99307.81;;;8.82;100.00
71948;BME280;63257;55.082;38.772;2023-10-31T02:52:54;99301.97;;;8.77;100.00
71948;BME280;63257;55.082;38.772;2023-10-31T02:55:20;99313.41;;;8.76;100.00
71948;BME280;63257;55.082;38.772;2023-10-31T02:57:46;99314.34;;;8.75;100.00
71948;BME280;63257;55.082;38.772;2023-10-31T03:00:12;99334.13;;;8.82;100.00
71948;BME280;63257;55.082;38.772;2023-10-31T03:02:38;99332.84;;;8.89;100.00
71948;BME280;63257;55.082;38.772;2023-10-31T03:05:04;99336.81;;;8.96;100.00
71948;BME280;63257;55.082;38.772;2023-10-31T03:07:31;99314.53;;;8.88;100.00
71948;BME280;63257;55.082;38.772;2023-10-31T03:09:58;99333.34;;;8.96;100.00
71948;BME280;63257;55.082;38.772;2023-10-31T03:12:24;99330.81;;;8.94;100.00
71948;BME280;63257;55.082;38.772;2023-10-31T03:14:50;99335.13;;;8.95;100.00
71948;BME280;63257;55.082;38.772;2023-10-31T03:17:17;99342.78;;;9.00;100.00
71948;BME280;63257;55.082;38.772;2023-10-31T03:19:44;99341.91;;;8.99;100.00
71948;BME280;63257;55.082;38.772;2023-10-31T03:22:10;99347.94;;;9.02;100.00
71948;BME280;63257;55.082;38.772;2023-10-31T03:24:38;99351.19;;;9.07;100.00
71948;BME280;63257;55.082;38.772;2023-10-31T03:27:04;99358.72;;;9.13;100.00
71948;BME280;63257;55.082;38.772;2023-10-31T03:29:30;99339.19;;;9.01;100.00
71948;BME280;63257;55.082;38.772;2023-10-31T03:31:57;99351.34;;;9.04;100.00
71948;BME280;63257;55.082;38.772;2023-10-31T03:34:23;99370.53;;;9.06;100.00
71948;BME280;63257;55.082;38.772;2023-10-31T03:36:49;99367.56;;;8.96;100.00
71948;BME280;63257;55.082;38.772;2023-10-31T03:39:15;99352.56;;;8.82;100.00
71948;BME280;63257;55.082;38.772;2023-10-31T03:41:41;99369.94;;;8.85;100.00
71948;BME280;63257;55.082;38.772;2023-10-31T03:44:08;99376.47;;;8.77;100.00
71948;BME280;63257;55.082;38.772;2023-10-31T03:46:34;99359.75;;;8.62;100.00
71948;BME280;63257;55.082;38.772;2023-10-31T03:49:00;99364.25;;;8.60;100.00
71948;BME280;63257;55.082;38.772;2023-10-31T03:51:26;99377.84;;;8.69;100.00
71948;BME280;63257;55.082;38.772;2023-10-31T03:53:52;99362.03;;;8.53;100.00
71948;BME280;63257;55.082;38.772;2023-10-31T03:56:18;99373.41;;;8.53;100.00
71948;BME280;63257;55.082;38.772;2023-10-31T03:58:44;99380.22;;;8.57;100.00
71948;BME280;63257;55.082;38.772;2023-10-31T04:01:10;99395.13;;;8.57;100.00
71948;BME280;63257;55.082;38.772;2023-10-31T04:03:35;99408.06;;;8.61;100.00
71948;BME280;63257;55.082;38.772;2023-10-31T04:06:02;99403.03;;;8.57;100.00
71948;BME280;63257;55.082;38.772;2023-10-31T04:08:27;99412.78;;;8.55;100.00
71948;BME280;63257;55.082;38.772;2023-10-31T04:10:53;99396.56;;;8.46;100.00
71948;BME280;63257;55.082;38.772;2023-10-31T04:13:19;99412.78;;;8.55;100.00
71948;BME280;63257;55.082;38.772;2023-10-31T04:15:45;99406.91;;;8.49;100.00
71948;BME280;63257;55.082;38.772;2023-10-31T04:18:10;99412.09;;;8.51;100.00
71948;BME280;63257;55.082;38.772;2023-10-31T04:20:36;99418.19;;;8.52;100.00
71948;BME280;63257;55.082;38.772;2023-10-31T04:23:02;99418.53;;;8.45;100.00
71948;BME280;63257;55.082;38.772;2023-10-31T04:25:28;99429.06;;;8.45;100.00
71948;BME280;63257;55.082;38.772;2023-10-31T04:27:54;99413.78;;;8.35;100.00
71948;BME280;63257;55.082;38.772;2023-10-31T04:30:20;99419.16;;;8.33;100.00
71948;BME280;63257;55.082;38.772;2023-10-31T04:32:47;99429.50;;;8.36;100.00
71948;BME280;63257;55.082;38.772;2023-10-31T04:35:13;99432.22;;;8.35;100.00
71948;BME280;63257;55.082;38.772;2023-10-31T04:37:38;99427.13;;;8.31;100.00
71948;BME280;63257;55.082;38.772;2023-10-31T04:40:04;99444.25;;;8.39;100.00
71948;BME280;63257;55.082;38.772;2023-10-31T04:42:34;99455.63;;;8.39;100.00
71948;BME280;63257;55.082;38.772;2023-10-31T04:45:00;99453.06;;;8.38;100.00
71948;BME280;63257;55.082;38.772;2023-10-31T04:47:26;99461.91;;;8.37;100.00
71948;BME280;63257;55.082;38.772;2023-10-31T04:49:52;99439.34;;;8.32;100.00
71948;BME280;63257;55.082;38.772;2023-10-31T04:52:18;99456.50;;;8.40;100.00
71948;BME280;63257;55.082;38.772;2023-10-31T04:54:45;99449.91;;;8.31;100.00
71948;BME280;63257;55.082;38.772;2023-10-31T04:57:11;99457.41;;;8.39;100.00
71948;BME280;63257;55.082;38.772;2023-10-31T04:59:36;99464.28;;;8.41;100.00
71948;BME280;63257;55.082;38.772;2023-10-31T05:02:03;99461.03;;;8.36;100.00
71948;BME280;63257;55.082;38.772;2023-10-31T05:04:29;99474.50;;;8.47;100.00
71948;BME280;63257;55.082;38.772;2023-10-31T05:06:55;99460.13;;;8.37;100.00
71948;BME280;63257;55.082;38.772;2023-10-31T05:09:21;99466.22;;;8.38;100.00
71948;BME280;63257;55.082;38.772;2023-10-31T05:11:49;99492.69;;;8.52;100.00
71948;BME280;63257;55.082;38.772;2023-10-31T05:14:15;99485.66;;;8.53;100.00
71948;BME280;63257;55.082;38.772;2023-10-31T05:16:44;99497.81;;;8.55;100.00
71948;BME280;63257;55.082;38.772;2023-10-31T05:19:10;99507.31;;;8.58;100.00
71948;BME280;63257;55.082;38.772;2023-10-31T05:21:36;99502.13;;;8.56;100.00
71948;BME280;63257;55.082;38.772;2023-10-31T05:24:02;99509.03;;;8.59;100.00
71948;BME280;63257;55.082;38.772;2023-10-31T05:26:29;99513.28;;;8.61;100.00
71948;BME280;63257;55.082;38.772;2023-10-31T05:28:56;99513.28;;;8.61;100.00
71948;BME280;63257;55.082;38.772;2023-10-31T05:31:25;99522.84;;;8.62;100.00
71948;BME280;63257;55.082;38.772;2023-10-31T05:33:51;99512.50;;;8.59;100.00
71948;BME280;63257;55.082;38.772;2023-10-31T05:36:22;99528.09;;;8.62;100.00
71948;BME280;63257;55.082;38.772;2023-10-31T05:38:48;99528.91;;;8.64;100.00
71948;BME280;63257;55.082;38.772;2023-10-31T05:41:14;99524.38;;;8.66;100.00
71948;BME280;63257;55.082;38.772;2023-10-31T05:43:41;99536.63;;;8.68;100.00
71948;BME280;63257;55.082;38.772;2023-10-31T05:46:08;99532.16;;;8.70;100.00
71948;BME280;63257;55.082;38.772;2023-10-31T05:48:39;99530.97;;;8.75;100.00
71948;BME280;63257;55.082;38.772;2023-10-31T05:51:15;99544.88;;;8.77;100.00
71948;BME280;63257;55.082;38.772;2023-10-31T05:53:46;99538.78;;;8.77;100.00
71948;BME280;63257;55.082;38.772;2023-10-31T05:56:14;99519.03;;;8.68;100.00
71948;BME280;63257;55.082;38.772;2023-10-31T05:58:41;99542.16;;;8.79;100.00
71948;BME280;63257;55.082;38.772;2023-10-31T06:01:07;99550.84;;;8.81;100.00
71948;BME280;63257;55.082;38.772;2023-10-31T06:03:34;99555.94;;;8.84;100.00
71948;BME280;63257;55.082;38.772;2023-10-31T06:06:00;99530.97;;;8.75;100.00
71948;BME280;63257;55.082;38.772;2023-10-31T06:08:25;99549.50;;;8.90;100.00
71948;BME280;63257;55.082;38.772;2023-10-31T06:10:59;99550.38;;;8.90;100.00
71948;BME280;63257;55.082;38.772;2023-10-31T06:13:26;99531.97;;;8.73;100.00
71948;BME280;63257;55.082;38.772;2023-10-31T06:15:54;99571.25;;;8.93;100.00
71948;BME280;63257;55.082;38.772;2023-10-31T06:18:20;99579.91;;;8.95;100.00
71948;BME280;63257;55.082;38.772;2023-10-31T06:20:46;99558.28;;;8.90;100.00
71948;BME280;63257;55.082;38.772;2023-10-31T06:23:12;99571.94;;;8.97;100.00
71948;BME280;63257;55.082;38.772;2023-10-31T06:25:38;99587.34;;;9.05;100.00
71948;BME280;63257;55.082;38.772;2023-10-31T06:28:04;99583.78;;;9.06;100.00
71948;BME280;63257;55.082;38.772;2023-10-31T06:30:30;99589.78;;;9.08;100.00
71948;BME280;63257;55.082;38.772;2023-10-31T06:32:55;99591.34;;;9.12;100.00
71948;BME280;63257;55.082;38.772;2023-10-31T06:35:22;99601.47;;;9.20;100.00
71948;BME280;63257;55.082;38.772;2023-10-31T06:37:51;99600.47;;;9.22;100.00
71948;BME280;63257;55.082;38.772;2023-10-31T06:40:17;99596.91;;;9.23;100.00
71948;BME280;63257;55.082;38.772;2023-10-31T06:42:43;99578.03;;;9.15;100.00
71948;BME280;63257;55.082;38.772;2023-10-31T06:45:09;99594.09;;;9.26;100.00
71948;BME280;63257;55.082;38.772;2023-10-31T06:47:35;99598.34;;;9.29;100.00
71948;BME280;63257;55.082;38.772;2023-10-31T06:50:01;99587.81;;;9.29;100.00
71948;BME280;63257;55.082;38.772;2023-10-31T06:52:29;99612.50;;;9.44;100.00
71948;BME280;63257;55.082;38.772;2023-10-31T06:54:54;99614.50;;;9.55;100.00
71948;BME280;63257;55.082;38.772;2023-10-31T06:57:20;99614.94;;;9.63;100.00
71948;BME280;63257;55.082;38.772;2023-10-31T06:59:46;99616.06;;;9.75;100.00
71948;BME280;63257;55.082;38.772;2023-10-31T07:02:12;99624.41;;;9.83;100.00
71948;BME280;63257;55.082;38.772;2023-10-31T07:04:39;99615.91;;;9.78;100.00
71948;BME280;63257;55.082;38.772;2023-10-31T07:07:06;99621.16;;;9.78;100.00
71948;BME280;63257;55.082;38.772;2023-10-31T07:09:31;99639.81;;;9.91;100.00
71948;BME280;63257;55.082;38.772;2023-10-31T07:11:57;99627.41;;;9.77;100.00
71948;BME280;63257;55.082;38.772;2023-10-31T07:14:23;99649.06;;;9.82;100.00
71948;BME280;63257;55.082;38.772;2023-10-31T07:16:49;99663.03;;;9.84;100.00
71948;BME280;63257;55.082;38.772;2023-10-31T07:19:14;99665.66;;;9.84;100.00
71948;BME280;63257;55.082;38.772;2023-10-31T07:21:40;99661.00;;;9.89;100.00
71948;BME280;63257;55.082;38.772;2023-10-31T07:24:06;99663.19;;;9.97;99.82
71948;BME280;63257;55.082;38.772;2023-10-31T07:26:35;99663.69;;;10.04;99.45
71948;BME280;63257;55.082;38.772;2023-10-31T07:29:02;99672.97;;;10.11;99.97
71948;BME280;63257;55.082;38.772;2023-10-31T07:31:28;99665.13;;;10.09;98.95
71948;BME280;63257;55.082;38.772;2023-10-31T07:33:53;99665.13;;;10.25;98.39
71948;BME280;63257;55.082;38.772;2023-10-31T07:36:19;99672.72;;;10.47;97.09
71948;BME280;63257;55.082;38.772;2023-10-31T07:38:45;99668.38;;;10.46;96.08
71948;BME280;63257;55.082;38.772;2023-10-31T07:41:11;99662.84;;;10.35;96.66
71948;BME280;63257;55.082;38.772;2023-10-31T07:43:37;99668.63;;;10.42;95.72
71948;BME280;63257;55.082;38.772;2023-10-31T07:46:03;99687.75;;;10.45;95.34
71948;BME280;63257;55.082;38.772;2023-10-31T07:48:29;99695.34;;;10.35;95.71
71948;BME280;63257;55.082;38.772;2023-10-31T07:50:54;99686.50;;;10.37;95.87
71948;BME280;63257;55.082;38.772;2023-10-31T07:53:20;99681.94;;;10.40;95.10
71948;BME280;63257;55.082;38.772;2023-10-31T07:55:46;99695.84;;;10.58;94.85
71948;BME280;63257;55.082;38.772;2023-10-31T07:58:12;99703.66;;;10.76;93.93
71948;BME280;63257;55.082;38.772;2023-10-31T08:00:38;99707.53;;;10.84;93.23
71948;BME280;63257;55.082;38.772;2023-10-31T08:03:05;99718.72;;;11.04;91.82
71948;BME280;63257;55.082;38.772;2023-10-31T08:05:31;99706.84;;;11.11;90.72
71948;BME280;63257;55.082;38.772;2023-10-31T08:07:57;99713.31;;;10.91;90.50
71948;BME280;63257;55.082;38.772;2023-10-31T08:10:22;99699.66;;;10.68;91.46
71948;BME280;63257;55.082;38.772;2023-10-31T08:12:48;99717.00;;;10.73;91.88
71948;BME280;63257;55.082;38.772;2023-10-31T08:15:15;99712.44;;;10.60;92.95
71948;BME280;63257;55.082;38.772;2023-10-31T08:17:42;99709.78;;;10.76;93.08
71948;BME280;63257;55.082;38.772;2023-10-31T08:20:08;99723.19;;;10.88;92.90
71948;BME280;63257;55.082;38.772;2023-10-31T08:22:36;99708.38;;;10.85;92.44
71948;BME280;63257;55.082;38.772;2023-10-31T08:25:02;99701.03;;;10.90;92.17
71948;BME280;63257;55.082;38.772;2023-10-31T08:27:31;99702.56;;;10.94;91.39
71948;BME280;63257;55.082;38.772;2023-10-31T08:29:57;99717.25;;;11.14;90.91
71948;BME280;63257;55.082;38.772;2023-10-31T08:32:23;99716.38;;;11.14;89.44
71948;BME280;63257;55.082;38.772;2023-10-31T08:34:52;99710.28;;;11.28;89.01
71948;BME280;63257;55.082;38.772;2023-10-31T08:37:19;99709.81;;;11.35;89.10
71948;BME280;63257;55.082;38.772;2023-10-31T08:39:45;99720.38;;;11.35;88.87
71948;BME280;63257;55.082;38.772;2023-10-31T08:42:11;99719.47;;;11.36;89.17
71948;BME280;63257;55.082;38.772;2023-10-31T08:44:39;99719.34;;;11.52;89.40
71948;BME280;63257;55.082;38.772;2023-10-31T08:47:05;99703.88;;;11.46;86.25
71948;BME280;63257;55.082;38.772;2023-10-31T08:49:33;99714.25;;;11.49;86.07
71948;BME280;63257;55.082;38.772;2023-10-31T08:51:58;99713.97;;;11.40;85.97
71948;BME280;63257;55.082;38.772;2023-10-31T08:54:27;99714.25;;;11.35;86.79
71948;BME280;63257;55.082;38.772;2023-10-31T08:56:53;99712.47;;;11.21;87.18
71948;BME280;63257;55.082;38.772;2023-10-31T08:59:19;99711.03;;;11.30;87.45
71948;BME280;63257;55.082;38.772;2023-10-31T09:01:45;99706.03;;;11.25;86.95
71948;BME280;63257;55.082;38.772;2023-10-31T09:04:11;99711.50;;;11.22;87.71
71948;BME280;63257;55.082;38.772;2023-10-31T09:06:36;99702.81;;;11.20;87.55
71948;BME280;63257;55.082;38.772;2023-10-31T09:09:02;99697.63;;;11.18;87.58
71948;BME280;63257;55.082;38.772;2023-10-31T09:11:29;99714.06;;;11.38;87.81
71948;BME280;63257;55.082;38.772;2023-10-31T09:13:55;99705.78;;;11.59;87.20
71948;BME280;63257;55.082;38.772;2023-10-31T09:16:21;99709.34;;;11.58;86.58
71948;BME280;63257;55.082;38.772;2023-10-31T09:18:46;99704.66;;;11.63;85.79
71948;BME280;63257;55.082;38.772;2023-10-31T09:21:12;99710.22;;;11.58;85.64
71948;BME280;63257;55.082;38.772;2023-10-31T09:23:38;99710.13;;;11.60;86.04
71948;BME280;63257;55.082;38.772;2023-10-31T09:26:04;99710.03;;;11.90;85.51
71948;BME280;63257;55.082;38.772;2023-10-31T09:28:30;99717.19;;;12.17;84.70
71948;BME280;63257;55.082;38.772;2023-10-31T09:30:56;99707.72;;;12.27;83.42
71948;BME280;63257;55.082;38.772;2023-10-31T09:33:21;99713.16;;;12.38;83.53
71948;BME280;63257;55.082;38.772;2023-10-31T09:35:47;99695.88;;;12.33;83.08
71948;BME280;63257;55.082;38.772;2023-10-31T09:38:13;99699.91;;;12.53;82.78
71948;BME280;63257;55.082;38.772;2023-10-31T09:40:39;99705.81;;;12.56;81.50
71948;BME280;63257;55.082;38.772;2023-10-31T09:43:05;99708.25;;;12.60;81.22
71948;BME280;63257;55.082;38.772;2023-10-31T09:45:32;99693.81;;;12.65;80.59
71948;BME280;63257;55.082;38.772;2023-10-31T09:48:00;99695.81;;;12.75;81.21
71948;BME280;63257;55.082;38.772;2023-10-31T09:50:26;99677.28;;;12.75;81.05
71948;BME280;63257;55.082;38.772;2023-10-31T09:52:52;99694.03;;;12.75;81.00
71948;BME280;63257;55.082;38.772;2023-10-31T09:55:18;99700.81;;;12.79;80.48
71948;BME280;63257;55.082;38.772;2023-10-31T09:57:45;99694.66;;;12.79;80.11
71948;BME280;63257;55.082;38.772;2023-10-31T10:00:11;99683.03;;;12.81;79.71
71948;BME280;63257;55.082;38.772;2023-10-31T10:02:37;99710.22;;;13.11;79.28
71948;BME280;63257;55.082;38.772;2023-10-31T10:05:04;99697.88;;;12.97;78.52
71948;BME280;63257;55.082;38.772;2023-10-31T10:07:34;99716.19;;;12.87;78.22
71948;BME280;63257;55.082;38.772;2023-10-31T10:10:01;99694.97;;;12.74;78.90
71948;BME280;63257;55.082;38.772;2023-10-31T10:12:27;99696.63;;;12.62;78.30
71948;BME280;63257;55.082;38.772;2023-10-31T10:14:53;99696.63;;;12.62;78.89
71948;BME280;63257;55.082;38.772;2023-10-31T10:17:23;99703.50;;;12.52;80.17
71948;BME280;63257;55.082;38.772;2023-10-31T10:20:11;99695.31;;;12.42;79.90
71948;BME280;63257;55.082;38.772;2023-10-31T10:22:39;99703.06;;;12.31;80.22
71948;BME280;63257;55.082;38.772;2023-10-31T10:25:14;99710.56;;;12.24;81.42
71948;BME280;63257;55.082;38.772;2023-10-31T10:27:45;99712.72;;;12.32;81.17
71948;BME280;63257;55.082;38.772;2023-10-31T10:30:12;99698.41;;;12.49;81.22
71948;BME280;63257;55.082;38.772;2023-10-31T10:32:38;99704.38;;;12.65;80.42
71948;BME280;63257;55.082;38.772;2023-10-31T10:35:05;99725.16;;;12.71;80.27
71948;BME280;63257;55.082;38.772;2023-10-31T10:37:31;99695.38;;;12.68;79.52
71948;BME280;63257;55.082;38.772;2023-10-31T10:39:58;99715.31;;;12.73;79.70
71948;BME280;63257;55.082;38.772;2023-10-31T10:42:46;99704.53;;;12.77;79.33
71948;BME280;63257;55.082;38.772;2023-10-31T10:45:14;99697.19;;;12.80;78.86
71948;BME280;63257;55.082;38.772;2023-10-31T10:47:47;99702.44;;;12.82;79.32
71948;BME280;63257;55.082;38.772;2023-10-31T10:50:13;99694.88;;;12.76;78.93
71948;BME280;63257;55.082;38.772;2023-10-31T10:52:44;99713.34;;;12.90;79.23
71948;BME280;63257;55.082;38.772;2023-10-31T10:55:14;99689.19;;;12.95;78.60
71948;BME280;63257;55.082;38.772;2023-10-31T10:58:01;99705.53;;;13.01;78.99
71948;BME280;63257;55.082;38.772;2023-10-31T11:00:28;99699.19;;;13.04;78.97
71948;BME280;63257;55.082;38.772;2023-10-31T11:02:55;99683.56;;;12.99;78.74
71948;BME280;63257;55.082;38.772;2023-10-31T11:05:23;99679.03;;;13.01;78.92
71948;BME280;63257;55.082;38.772;2023-10-31T11:07:49;99678.09;;;13.02;78.38
71948;BME280;63257;55.082;38.772;2023-10-31T11:10:19;99676.19;;;13.04;78.43
71948;BME280;63257;55.082;38.772;2023-10-31T11:12:45;99698.84;;;13.09;77.69
71948;BME280;63257;55.082;38.772;2023-10-31T11:15:20;99700.13;;;13.16;77.56
71948;BME280;63257;55.082;38.772;2023-10-31T11:17:47;99688.38;;;13.07;78.19
71948;BME280;63257;55.082;38.772;2023-10-31T11:20:15;99677.78;;;13.07;78.11
71948;BME280;63257;55.082;38.772;2023-10-31T11:22:43;99678.50;;;13.09;77.30
71948;BME280;63257;55.082;38.772;2023-10-31T11:25:17;99693.06;;;13.16;77.97
71948;BME280;63257;55.082;38.772;2023-10-31T11:27:44;99694.66;;;13.19;77.48
71948;BME280;63257;55.082;38.772;2023-10-31T11:30:29;99695.81;;;13.28;77.24
71948;BME280;63257;55.082;38.772;2023-10-31T11:32:58;99694.53;;;13.33;76.15
71948;BME280;63257;55.082;38.772;2023-10-31T11:35:25;99669.66;;;13.36;75.97
71948;BME280;63257;55.082;38.772;2023-10-31T11:38:04;99682.06;;;13.48;74.83
71948;BME280;63257;55.082;38.772;2023-10-31T11:40:32;99690.97;;;13.60;74.47
71948;BME280;63257;55.082;38.772;2023-10-31T11:43:03;99684.56;;;13.76;73.73
71948;BME280;63257;55.082;38.772;2023-10-31T11:45:33;99666.31;;;13.84;73.27
71948;BME280;63257;55.082;38.772;2023-10-31T11:48:00;99662.66;;;13.98;72.64
71948;BME280;63257;55.082;38.772;2023-10-31T11:50:26;99667.22;;;13.96;72.94
71948;BME280;63257;55.082;38.772;2023-10-31T11:53:03;99672.94;;;14.02;72.65
71948;BME280;63257;55.082;38.772;2023-10-31T11:55:32;99671.75;;;14.06;71.91
71948;BME280;63257;55.082;38.772;2023-10-31T12:00:47;99650.63;;;14.18;70.69
71948;BME280;63257;55.082;38.772;2023-10-31T12:03:16;99672.31;;;14.36;70.34
71948;BME280;63257;55.082;38.772;2023-10-31T12:05:59;99659.16;;;14.34;70.24
71948;BME280;63257;55.082;38.772;2023-10-31T12:08:32;99659.81;;;14.49;69.31
71948;BME280;63257;55.082;38.772;2023-10-31T12:13:30;99654.50;;;14.73;68.23
71948;BME280;63257;55.082;38.772;2023-10-31T12:15:56;99671.28;;;14.74;69.00
71948;BME280;63257;55.082;38.772;2023-10-31T12:18:22;99674.56;;;14.78;68.28
71948;BME280;63257;55.082;38.772;2023-10-31T12:20:50;99676.78;;;14.84;68.21
71948;BME280;63257;55.082;38.772;2023-10-31T12:23:17;99684.34;;;14.77;68.16
71948;BME280;63257;55.082;38.772;2023-10-31T12:25:52;99675.00;;;14.47;69.25
71948;BME280;63257;55.082;38.772;2023-10-31T12:28:20;99685.00;;;14.43;69.61
71948;BME280;63257;55.082;38.772;2023-10-31T12:30:47;99667.31;;;14.55;69.21
71948;BME280;63257;55.082;38.772;2023-10-31T12:33:14;99679.31;;;14.85;68.13
71948;BME280;63257;55.082;38.772;2023-10-31T12:35:40;99664.94;;;14.88;67.64
71948;BME280;63257;55.082;38.772;2023-10-31T12:38:07;99656.34;;;14.84;67.22
71948;BME280;63257;55.082;38.772;2023-10-31T12:40:35;99653.56;;;14.74;67.59
71948;BME280;63257;55.082;38.772;2023-10-31T12:43:01;99674.06;;;14.72;67.88
71948;BME280;63257;55.082;38.772;2023-10-31T12:45:29;99659.72;;;14.51;68.46
71948;BME280;63257;55.082;38.772;2023-10-31T12:48:04;99667.44;;;14.30;69.43
71948;BME280;63257;55.082;38.772;2023-10-31T12:50:31;99677.06;;;14.06;70.22
71948;BME280;63257;55.082;38.772;2023-10-31T12:52:57;99676.59;;;13.88;70.69
71948;BME280;63257;55.082;38.772;2023-10-31T12:55:27;99676.94;;;13.71;71.51